Time;durP1;ratioP1;P1;durP2;ratioP2;P2;SDS_P1;SDS_P2;PMS_P1;PMS_P2;Temp;Humidity;BMP_temperature;BMP_pressure;BME280_temperature;BME280_humidity;BME280_pressure;Samples;Min_cycle;Max_cycle;Signal;HPM_P1;HPM_P2
2022/05/05 00:01:52;;;;;;;3.33;3.03;;;;;;;;;;5033526;28;20212;-78
2022/05/05 00:04:19;;;;;;;3.70;3.03;;;8.70;99.90;;;;;;5033380;28;20225;-78
2022/05/05 00:06:45;;;;;;;3.47;3.17;;;8.70;99.90;;;;;;5033588;28;20223;-78
2022/05/05 00:09:11;;;;;;;3.30;2.97;;;;;;;;;;5035276;28;20178;-78
2022/05/05 00:14:24;;;;;;;4.17;2.67;;;8.60;99.90;;;;;;5037023;28;20172;-78
2022/05/05 00:16:57;;;;;;;4.50;2.80;;;8.70;99.90;;;;;;5036982;28;20187;-77
2022/05/05 00:19:23;;;;;;;3.43;3.13;;;8.80;99.90;;;;;;5035759;28;20549;-78
2022/05/05 00:21:50;;;;;;;7.17;3.43;;;8.50;99.90;;;;;;5037013;28;20617;-78
2022/05/05 00:24:16;;;;;;;3.87;3.43;;;8.60;99.90;;;;;;5036962;28;20179;-78
2022/05/05 00:26:42;;;;;;;4.30;3.10;;;8.60;99.90;;;;;;5037127;28;20170;-78
2022/05/05 00:29:08;;;;;;;3.60;3.30;;;8.60;99.90;;;;;;5036861;28;20257;-78
2022/05/05 00:31:34;;;;;;;3.10;2.80;;;;;;;;;;5036712;28;20261;-78
2022/05/05 00:34:00;;;;;;;4.20;3.60;;;8.60;99.90;;;;;;5036657;28;20547;-78
2022/05/05 00:36:26;;;;;;;3.80;3.40;;;;;;;;;;5035695;28;20265;-78
2022/05/05 00:38:52;;;;;;;4.20;3.80;;;;;;;;;;5035903;28;20646;-78
2022/05/05 00:41:18;;;;;;;4.70;3.97;;;;;;;;;;5037399;28;20170;-78
2022/05/05 00:43:44;;;;;;;5.03;3.93;;;8.50;99.90;;;;;;5037039;28;20240;-78
2022/05/05 00:46:10;;;;;;;4.03;3.63;;;;;;;;;;5037295;28;20687;-78
2022/05/05 00:48:35;;;;;;;4.30;3.90;;;8.40;99.90;;;;;;5036819;28;20174;-78
2022/05/05 00:51:01;;;;;;;5.37;4.30;;;8.40;99.90;;;;;;5036695;28;20200;-78
2022/05/05 00:53:27;;;;;;;5.73;3.93;;;;;;;;;;5036286;28;20561;-78
2022/05/05 00:56:02;;;;;;;4.60;4.00;;;8.40;99.90;;;;;;5035097;28;20187;-78
2022/05/05 00:58:28;;;;;;;4.17;3.77;;;8.30;99.90;;;;;;5036587;28;20534;-78
2022/05/05 01:00:55;;;;;;;4.07;3.67;;;8.30;99.90;;;;;;5036425;28;20177;-78
2022/05/05 01:03:21;;;;;;;4.70;3.90;;;8.30;99.90;;;;;;5035183;28;20304;-78
2022/05/05 01:05:47;;;;;;;4.27;3.87;;;8.30;99.90;;;;;;5036453;28;20257;-78
2022/05/05 01:08:13;;;;;;;4.40;3.90;;;8.20;99.90;;;;;;5036472;28;20261;-78
2022/05/05 01:10:39;;;;;;;4.33;3.60;;;8.20;99.90;;;;;;5035020;28;20182;-78
2022/05/05 01:13:04;;;;;;;5.27;3.60;;;8.20;99.90;;;;;;5036357;28;20569;-78
2022/05/05 01:15:30;;;;;;;5.03;4.03;;;8.20;99.90;;;;;;5036549;28;20657;-78
2022/05/05 01:17:56;;;;;;;3.73;3.40;;;8.10;99.90;;;;;;5036810;28;20613;-78
2022/05/05 01:20:22;;;;;;;4.20;3.63;;;8.20;99.90;;;;;;5034835;28;20591;-78
2022/05/05 01:22:50;;;;;;;4.13;3.73;;;8.00;99.90;;;;;;5034350;28;20694;-78
2022/05/05 01:28:12;;;;;;;4.03;3.67;;;8.00;99.90;;;;;;5037043;28;20224;-78
2022/05/05 01:30:43;;;;;;;4.03;3.53;;;8.00;99.90;;;;;;5036409;28;20521;-79
2022/05/05 01:33:20;;;;;;;4.47;4.07;;;7.90;99.90;;;;;;5036738;28;20287;-79
2022/05/05 01:35:58;;;;;;;4.27;3.87;;;7.60;99.90;;;;;;5042177;28;20263;-78
2022/05/05 01:38:30;;;;;;;4.07;3.67;;;7.90;99.90;;;;;;5048469;28;20196;-79
2022/05/05 01:40:55;;;;;;;5.20;3.97;;;7.90;99.90;;;;;;5047332;28;20170;-78
2022/05/05 01:43:21;;;;;;;5.00;3.87;;;7.80;99.90;;;;;;5037856;28;20219;-78
2022/05/05 01:45:47;;;;;;;4.10;3.43;;;7.60;99.90;;;;;;5034607;28;20185;-78
2022/05/05 01:48:13;;;;;;;4.33;3.93;;;7.60;99.90;;;;;;5035328;28;20172;-78
2022/05/05 01:50:40;;;;;;;5.13;4.27;;;;;;;;;;5035294;28;20176;-78
2022/05/05 01:53:06;;;;;;;3.83;3.27;;;7.70;99.90;;;;;;5035277;28;20196;-78
2022/05/05 01:55:33;;;;;;;4.07;3.70;;;7.70;99.90;;;;;;5035562;28;20546;-78
2022/05/05 01:58:00;;;;;;;5.13;3.40;;;7.70;99.90;;;;;;5034350;28;20558;-78
2022/05/05 02:00:26;;;;;;;6.57;3.83;;;7.70;99.90;;;;;;5036175;28;20200;-78
2022/05/05 02:02:52;;;;;;;4.80;4.10;;;7.60;99.90;;;;;;5033589;28;20216;-78
2022/05/05 02:05:18;;;;;;;4.30;3.50;;;;;;;;;;5035124;28;20229;-79
2022/05/05 02:07:44;;;;;;;3.67;3.37;;;7.60;99.90;;;;;;5033859;28;20179;-78
2022/05/05 02:10:19;;;;;;;3.73;3.20;;;7.70;99.90;;;;;;5034806;28;20626;-78
2022/05/05 02:12:46;;;;;;;4.93;3.50;;;7.60;99.90;;;;;;5033707;28;20319;-78
2022/05/05 02:15:13;;;;;;;6.30;3.30;;;7.60;99.90;;;;;;5035058;28;20522;-78
2022/05/05 02:17:41;;;;;;;4.63;3.53;;;7.50;99.90;;;;;;5034987;28;20185;-78
2022/05/05 02:20:08;;;;;;;3.73;3.20;;;7.70;99.90;;;;;;5033707;28;20268;-78
2022/05/05 02:22:34;;;;;;;3.87;3.23;;;7.60;99.90;;;;;;5033199;28;20670;-78
2022/05/05 02:25:00;;;;;;;5.60;3.67;;;7.60;99.90;;;;;;5034517;28;20208;-78
2022/05/05 02:27:26;;;;;;;4.13;3.57;;;7.60;99.90;;;;;;5034920;28;20622;-78
2022/05/05 02:29:52;;;;;;;3.33;3.00;;;;;;;;;;5034457;28;20249;-78
2022/05/05 02:32:18;;;;;;;3.37;3.03;;;7.40;99.90;;;;;;5034336;28;20736;-78
2022/05/05 02:34:45;;;;;;;7.17;3.93;;;7.50;99.90;;;;;;5033199;28;20189;-78
2022/05/05 02:39:55;;;;;;;3.10;2.80;;;7.40;99.90;;;;;;5034441;28;20247;-78
2022/05/05 02:42:21;;;;;;;4.37;3.20;;;;;;;;;;5034596;28;20224;-78
2022/05/05 02:44:47;;;;;;;3.30;3.00;;;7.30;99.90;;;;;;5034520;28;20178;-78
2022/05/05 02:47:13;;;;;;;3.43;3.13;;;;;;;;;;5034607;28;20244;-78
2022/05/05 02:49:39;;;;;;;3.70;3.27;;;7.40;99.90;;;;;;5034103;28;20177;-78
2022/05/05 02:52:06;;;;;;;3.43;3.10;;;7.20;99.90;;;;;;5034214;28;20594;-78
2022/05/05 02:54:47;;;;;;;4.77;3.10;;;7.30;99.90;;;;;;5034430;28;20182;-78
2022/05/05 02:57:14;;;;;;;3.17;2.87;;;7.40;99.90;;;;;;5033985;28;20165;-78
2022/05/05 02:59:40;;;;;;;3.53;3.03;;;7.50;99.90;;;;;;5034366;28;20186;-78
2022/05/05 03:02:05;;;;;;;2.93;2.70;;;7.40;99.90;;;;;;5034008;28;20640;-78
2022/05/05 03:04:31;;;;;;;3.83;2.83;;;;;;;;;;5034215;28;20628;-78
2022/05/05 03:06:57;;;;;;;3.70;3.30;;;7.30;99.90;;;;;;5032606;28;20178;-78
2022/05/05 03:09:23;;;;;;;4.03;2.90;;;7.50;99.90;;;;;;5032569;28;20542;-78
2022/05/05 03:11:49;;;;;;;6.10;2.93;;;;;;;;;;5032510;28;20181;-78
2022/05/05 03:14:14;;;;;;;3.30;3.00;;;7.40;99.90;;;;;;5032689;28;20258;-78
2022/05/05 03:16:40;;;;;;;3.23;2.93;;;;;;;;;;5034168;28;20610;-78
2022/05/05 03:19:06;;;;;;;2.87;2.60;;;7.30;99.90;;;;;;5032745;28;20186;-78
2022/05/05 03:21:32;;;;;;;2.83;2.63;;;;;;;;;;5034135;28;20265;-78
2022/05/05 03:23:58;;;;;;;4.27;3.10;;;7.30;99.90;;;;;;5035453;28;20200;-78
2022/05/05 03:26:24;;;;;;;4.97;3.33;;;7.40;99.90;;;;;;5035361;28;20175;-78
2022/05/05 03:28:50;;;;;;;3.77;3.30;;;;;;;;;;5033991;28;20187;-78
2022/05/05 03:31:16;;;;;;;3.43;2.67;;;7.20;99.90;;;;;;5034192;28;20177;-78
2022/05/05 03:33:42;;;;;;;3.00;2.70;;;;;;;;;;5033332;28;20254;-78
2022/05/05 03:36:07;;;;;;;3.37;3.00;;;7.20;99.90;;;;;;5034022;28;20181;-78
2022/05/05 03:38:33;;;;;;;3.40;2.93;;;7.40;99.90;;;;;;5033952;28;20193;-78
2022/05/05 03:40:59;;;;;;;2.90;2.60;;;;;;;;;;5033734;28;20187;-78
2022/05/05 03:43:25;;;;;;;4.63;3.20;;;7.20;99.90;;;;;;5035013;28;20431;-78
2022/05/05 03:45:51;;;;;;;3.93;2.87;;;;;;;;;;5037926;28;20211;-78
2022/05/05 03:48:16;;;;;;;3.53;2.93;;;7.40;99.90;;;;;;5037894;28;20257;-78
2022/05/05 03:50:42;;;;;;;4.60;3.40;;;7.40;99.90;;;;;;5037897;28;20198;-78
2022/05/05 03:53:08;;;;;;;3.93;3.20;;;7.40;99.90;;;;;;5038233;28;20206;-78
2022/05/05 03:55:33;;;;;;;4.33;3.13;;;7.30;99.90;;;;;;5037995;28;20178;-78
2022/05/05 03:57:59;;;;;;;3.17;2.70;;;7.30;99.90;;;;;;5036594;28;20189;-78
2022/05/05 04:00:25;;;;;;;4.80;2.63;;;;;;;;;;5036047;28;20185;-78
2022/05/05 04:05:35;;;;;;;5.30;2.57;;;7.20;99.90;;;;;;5037913;28;20160;-78
2022/05/05 04:08:02;;;;;;;3.57;3.07;;;7.40;99.90;;;;;;5037664;28;20176;-78
2022/05/05 04:10:28;;;;;;;3.60;2.90;;;7.30;99.90;;;;;;5037332;28;20177;-78
2022/05/05 04:12:55;;;;;;;4.27;3.10;;;7.20;99.90;;;;;;5036304;28;20248;-78
2022/05/05 04:15:21;;;;;;;3.83;3.00;;;7.30;99.90;;;;;;5037827;28;20254;-78
2022/05/05 04:17:47;;;;;;;2.50;2.20;;;7.40;99.90;;;;;;5037763;28;20186;-78
2022/05/05 04:20:12;;;;;;;3.80;2.70;;;7.30;99.90;;;;;;5037709;28;20172;-79
2022/05/05 04:22:38;;;;;;;3.43;2.50;;;;;;;;;;5037633;28;20206;-78
2022/05/05 04:25:05;;;;;;;2.87;2.57;;;7.40;99.90;;;;;;5037761;28;20177;-78
2022/05/05 04:27:32;;;;;;;4.33;2.77;;;7.30;99.90;;;;;;5037583;28;20542;-78
2022/05/05 04:29:58;;;;;;;3.50;2.60;;;7.50;99.90;;;;;;5037781;28;20189;-78
2022/05/05 04:32:24;;;;;;;4.03;2.57;;;;;;;;;;5037974;28;20194;-79
2022/05/05 04:34:50;;;;;;;2.57;2.17;;;7.30;99.90;;;;;;5037718;28;20202;-79
2022/05/05 04:37:16;;;;;;;3.13;2.83;;;;;;;;;;5039578;28;20166;-78
2022/05/05 04:39:42;;;;;;;2.70;2.50;;;7.40;99.90;;;;;;5036085;28;20194;-79
2022/05/05 04:42:10;;;;;;;3.20;2.50;;;7.40;99.90;;;;;;5036000;28;20211;-78
2022/05/05 04:44:35;;;;;;;6.40;2.80;;;7.40;99.90;;;;;;5036167;28;20677;-78
2022/05/05 04:47:01;;;;;;;2.27;2.07;;;;;;;;;;5037282;28;20170;-78
2022/05/05 04:49:27;;;;;;;5.07;2.93;;;7.60;99.90;;;;;;5037114;28;20586;-78
2022/05/05 04:51:53;;;;;;;2.50;2.30;;;;;;;;;;5037650;28;20186;-78
2022/05/05 04:54:19;;;;;;;2.80;2.60;;;;;;;;;;5037029;28;20632;-78
2022/05/05 04:56:45;;;;;;;2.60;2.40;;;;;;;;;;5036575;28;20232;-79
2022/05/05 04:59:12;;;;;;;2.97;2.63;;;8.10;99.90;;;;;;5036403;28;20674;-79
2022/05/05 05:01:37;;;;;;;5.50;2.80;;;7.80;99.90;;;;;;5037382;28;20198;-80
2022/05/05 05:04:03;;;;;;;3.63;3.00;;;8.20;99.90;;;;;;5038288;28;20213;-78
2022/05/05 05:06:29;;;;;;;3.70;3.00;;;8.20;99.90;;;;;;5036171;28;20525;-79
2022/05/05 05:08:55;;;;;;;3.97;2.70;;;8.10;99.90;;;;;;5038250;28;20176;-79
2022/05/05 05:11:23;;;;;;;3.57;3.00;;;8.10;99.90;;;;;;5037680;28;20664;-79
2022/05/05 05:13:48;;;;;;;7.40;2.87;;;8.00;99.90;;;;;;5038384;28;20192;-79
2022/05/05 05:16:14;;;;;;;4.57;3.00;;;8.10;99.90;;;;;;5038313;28;20179;-79
2022/05/05 05:18:40;;;;;;;4.93;2.70;;;8.20;99.90;;;;;;5038029;28;20653;-78
2022/05/05 05:21:06;;;;;;;2.83;2.60;;;;;;;;;;5038449;28;20224;-78
2022/05/05 05:23:32;;;;;;;3.67;2.87;;;;;;;;;;5038642;28;20206;-79
2022/05/05 05:25:58;;;;;;;3.10;2.60;;;8.20;99.90;;;;;;5038643;28;20180;-79
2022/05/05 05:28:24;;;;;;;3.07;2.53;;;;;;;;;;5040630;28;20179;-80
2022/05/05 05:30:50;;;;;;;2.53;2.20;;;7.90;99.90;;;;;;5042602;28;20172;-80
2022/05/05 05:33:16;;;;;;;3.23;2.53;;;8.20;99.90;;;;;;5042710;28;20224;-79
2022/05/05 05:35:44;;;;;;;4.53;2.67;;;8.10;99.90;;;;;;5041182;28;20175;-80
2022/05/05 05:38:10;;;;;;;2.80;2.50;;;8.50;99.90;;;;;;5041928;28;20183;-80
2022/05/05 05:40:36;;;;;;;3.30;2.90;;;;;;;;;;5043314;28;20676;-80
2022/05/05 05:43:02;;;;;;;3.87;2.80;;;8.60;99.90;;;;;;5041918;28;20220;-80
2022/05/05 05:45:28;;;;;;;4.77;3.27;;;8.70;99.90;;;;;;5041453;28;20579;-80
2022/05/05 05:47:54;;;;;;;4.73;3.47;;;;;;;;;;5041890;28;20251;-80
2022/05/05 05:50:20;;;;;;;4.60;3.03;;;9.00;99.90;;;;;;5041465;28;20167;-79
2022/05/05 05:52:46;;;;;;;3.87;3.10;;;;;;;;;;5042054;28;20198;-80
2022/05/05 05:55:11;;;;;;;3.03;2.73;;;9.20;99.90;;;;;;5042315;28;20171;-79
2022/05/05 05:57:37;;;;;;;3.87;3.33;;;;;;;;;;5040882;28;20171;-80
2022/05/05 06:00:04;;;;;;;3.10;2.80;;;9.50;99.90;;;;;;5038543;28;20183;-79
2022/05/05 06:05:14;;;;;;;3.70;2.80;;;9.80;99.90;;;;;;5039210;28;20170;-80
2022/05/05 06:07:39;;;;;;;6.27;3.13;;;9.90;99.90;;;;;;5038579;28;20172;-80
2022/05/05 06:10:05;;;;;;;2.80;2.53;;;10.00;99.90;;;;;;5038988;28;20174;-79
2022/05/05 06:12:31;;;;;;;4.40;2.93;;;10.10;99.90;;;;;;5039501;28;20663;-80
2022/05/05 06:14:57;;;;;;;3.37;2.73;;;10.10;99.90;;;;;;5037143;28;20301;-79
2022/05/05 06:17:22;;;;;;;6.40;3.40;;;10.20;99.90;;;;;;5037612;28;20309;-79
2022/05/05 06:19:48;;;;;;;10.47;4.43;;;;;;;;;;5035051;28;20181;-79
2022/05/05 06:22:14;;;;;;;4.53;3.43;;;10.10;99.90;;;;;;5034178;28;20763;-80
2022/05/05 06:24:40;;;;;;;4.80;3.30;;;10.00;99.90;;;;;;5033924;28;20257;-79
2022/05/05 06:27:05;;;;;;;4.70;3.40;;;9.90;99.90;;;;;;5034127;28;20242;-80
2022/05/05 06:29:31;;;;;;;5.70;4.37;;;9.90;99.90;;;;;;5036195;28;20859;-79
2022/05/05 06:31:57;;;;;;;6.03;3.90;;;10.10;99.90;;;;;;5036680;28;20227;-79
2022/05/05 06:34:22;;;;;;;11.17;4.77;;;10.10;99.90;;;;;;5035040;28;20276;-79
2022/05/05 06:36:48;;;;;;;6.70;4.57;;;10.20;99.90;;;;;;5035947;28;20184;-79
2022/05/05 06:39:14;;;;;;;5.60;3.80;;;10.30;99.90;;;;;;5036845;28;20196;-79
2022/05/05 06:41:39;;;;;;;4.43;3.80;;;10.60;99.90;;;;;;5037054;28;20176;-79
2022/05/05 06:44:06;;;;;;;3.67;3.00;;;10.60;99.90;;;;;;5035963;28;20206;-79
2022/05/05 06:46:32;;;;;;;6.23;3.87;;;10.80;99.90;;;;;;5035906;28;20228;-80
2022/05/05 06:48:58;;;;;;;4.63;3.40;;;11.00;99.90;;;;;;5037378;28;20174;-79
2022/05/05 06:51:24;;;;;;;4.30;3.50;;;11.20;99.90;;;;;;5036361;28;20592;-79
2022/05/05 06:53:50;;;;;;;5.50;3.70;;;11.40;99.90;;;;;;5036560;28;20225;-80
2022/05/05 06:56:16;;;;;;;4.30;3.60;;;11.70;99.90;;;;;;5035642;28;20182;-79
2022/05/05 06:58:42;;;;;;;4.10;3.67;;;12.10;99.90;;;;;;5036417;28;20186;-79
2022/05/05 07:05:23;;;;;;;4.40;3.90;;;12.70;99.90;;;;;;5036376;28;20228;-79
2022/05/05 07:06:37;;;;;;;5.30;4.00;;;12.90;99.90;;;;;;5036381;28;20533;-79
2022/05/05 07:11:47;;;;;;;4.60;3.97;;;13.50;99.90;;;;;;5036778;28;20177;-80
2022/05/05 07:14:12;;;;;;;6.33;4.40;;;13.70;99.90;;;;;;5036884;28;20632;-78
2022/05/05 07:16:38;;;;;;;5.57;4.20;;;13.70;99.90;;;;;;5038783;28;20174;-79
2022/05/05 07:19:04;;;;;;;5.33;4.60;;;13.70;99.90;;;;;;5035360;28;20181;-79
2022/05/05 07:21:30;;;;;;;7.50;4.60;;;13.70;99.90;;;;;;5035724;28;20181;-80
2022/05/05 07:23:56;;;;;;;5.37;4.43;;;13.80;99.90;;;;;;5045903;28;20208;-79
2022/05/05 07:26:22;;;;;;;4.93;4.37;;;13.90;99.90;;;;;;5056989;28;20241;-79
2022/05/05 07:28:48;;;;;;;5.97;4.00;;;14.10;99.90;;;;;;5052136;28;20194;-80
2022/05/05 07:31:13;;;;;;;7.73;4.50;;;14.30;99.90;;;;;;5044547;28;20170;-80
2022/05/05 07:33:39;;;;;;;5.50;4.43;;;14.40;99.90;;;;;;5036701;28;20202;-79
2022/05/05 07:36:05;;;;;;;5.80;4.63;;;14.50;99.90;;;;;;5036700;28;20245;-82
2022/05/05 07:38:31;;;;;;;4.93;4.43;;;14.40;99.90;;;;;;5035234;28;20261;-79
2022/05/05 07:40:57;;;;;;;6.00;4.53;;;14.40;99.90;;;;;;5036274;28;20205;-79
2022/05/05 07:43:23;;;;;;;6.13;4.57;;;14.50;99.90;;;;;;5034571;28;20642;-79
2022/05/05 07:45:49;;;;;;;7.57;5.43;;;14.50;99.90;;;;;;5034641;28;20743;-79
2022/05/05 07:48:15;;;;;;;5.70;5.20;;;14.60;99.90;;;;;;5034336;28;20198;-80
2022/05/05 07:50:41;;;;;;;6.33;5.20;;;14.80;99.90;;;;;;5036327;28;20202;-79
2022/05/05 07:53:07;;;;;;;5.70;5.10;;;14.90;99.90;;;;;;5035085;28;20555;-80
2022/05/05 07:55:33;;;;;;;6.23;5.10;;;14.80;99.90;;;;;;5035902;28;20217;-80
2022/05/05 07:57:59;;;;;;;5.73;5.10;;;14.70;99.90;;;;;;5035922;28;20265;-80
2022/05/05 08:00:25;;;;;;;6.50;5.57;;;15.10;99.90;;;;;;5034631;28;20213;-80
2022/05/05 08:02:51;;;;;;;5.57;4.90;;;15.20;99.90;;;;;;5035111;28;20209;-77
2022/05/05 08:05:17;;;;;;;5.80;4.90;;;15.50;99.90;;;;;;5033687;28;20178;-80
2022/05/05 08:07:48;;;;;;;5.87;4.97;;;16.00;99.90;;;;;;5034170;28;20508;-78
2022/05/05 08:10:15;;;;;;;5.93;5.27;;;17.00;99.90;;;;;;5032851;28;20182;-78
2022/05/05 08:12:41;;;;;;;6.27;4.73;;;18.00;99.90;;;;;;5032733;28;20294;-78
2022/05/05 08:15:08;;;;;;;7.27;5.60;;;17.90;99.90;;;;;;5033736;28;20178;-78
2022/05/05 08:17:34;;;;;;;6.60;5.00;;;18.00;99.90;;;;;;5033197;28;20205;-78
2022/05/05 08:20:02;;;;;;;7.70;5.70;;;17.70;99.90;;;;;;5034040;28;20178;-77
2022/05/05 08:22:28;;;;;;;6.57;5.43;;;17.40;99.90;;;;;;5033896;28;20227;-77
2022/05/05 08:30:22;;;;;;;5.87;5.27;;;16.70;99.90;;;;;;5037171;28;20203;-78
2022/05/05 08:32:48;;;;;;;8.27;5.30;;;16.70;99.90;;;;;;5035964;28;20203;-77
2022/05/05 08:35:13;;;;;;;8.30;5.53;;;16.70;99.90;;;;;;5037097;28;20178;-77
2022/05/05 08:37:39;;;;;;;6.23;5.63;;;16.80;99.90;;;;;;5037448;28;20170;-77
2022/05/05 08:40:06;;;;;;;5.70;5.10;;;16.90;99.90;;;;;;5036950;28;20247;-78
2022/05/05 08:42:32;;;;;;;5.57;5.07;;;17.00;99.90;;;;;;5036854;28;20207;-77
2022/05/05 08:45:01;;;;;;;8.33;5.30;;;17.20;99.90;;;;;;5038416;28;20182;-78
2022/05/05 08:47:31;;;;;;;5.40;4.90;;;17.60;99.90;;;;;;5038868;28;20176;-77
2022/05/05 08:49:58;;;;;;;5.70;4.63;;;17.80;99.90;;;;;;5036672;28;20169;-78
2022/05/05 08:52:25;;;;;;;6.10;5.50;;;18.80;99.90;;;;;;5038556;28;20288;-77
2022/05/05 08:54:50;;;;;;;5.43;4.93;;;19.10;99.90;;;;;;5039107;28;20198;-79
2022/05/05 08:57:16;;;;;;;5.33;4.83;;;18.50;99.90;;;;;;5038670;28;20177;-78
2022/05/05 08:59:42;;;;;;;5.60;5.00;;;17.80;99.90;;;;;;5040032;28;20181;-78
2022/05/05 09:02:09;;;;;;;4.90;4.47;;;17.80;99.90;;;;;;5038976;28;20206;-79
2022/05/05 09:04:34;;;;;;;5.60;4.90;;;18.40;99.90;;;;;;5038749;28;20178;-78
2022/05/05 09:07:00;;;;;;;5.80;4.90;;;18.90;99.90;;;;;;5038230;28;20189;-79
2022/05/05 09:09:36;;;;;;;5.53;5.03;;;19.70;99.90;;;;;;5039965;28;20185;-80
2022/05/05 09:12:14;;;;;;;5.93;5.33;;;20.40;99.90;;;;;;5039815;28;20194;-79
2022/05/05 09:14:50;;;;;;;5.60;5.10;;;21.00;99.90;;;;;;5040564;28;20169;-79
2022/05/05 09:17:19;;;;;;;5.77;4.97;;;21.20;99.90;;;;;;5040287;28;20174;-79
2022/05/05 09:19:50;;;;;;;5.97;4.93;;;21.50;99.90;;;;;;5041063;28;20175;-79
2022/05/05 09:22:20;;;;;;;5.33;4.83;;;21.60;99.90;;;;;;5044170;28;20292;-77
2022/05/05 09:24:49;;;;;;;9.10;4.90;;;21.80;99.90;;;;;;5047860;28;20175;-78
2022/05/05 09:27:16;;;;;;;6.47;5.20;;;21.70;99.90;;;;;;5042759;28;20172;-79
2022/05/05 09:29:43;;;;;;;4.97;4.47;;;21.80;99.90;;;;;;5040016;28;20183;-79
2022/05/05 09:32:12;;;;;;;5.10;4.60;;;21.30;99.90;;;;;;5039172;28;20222;-79
2022/05/05 09:34:41;;;;;;;4.77;4.27;;;20.70;99.90;;;;;;5039342;28;20181;-79
2022/05/05 09:37:21;;;;;;;4.83;4.40;;;20.90;99.90;;;;;;5039346;28;20181;-79
2022/05/05 09:39:55;;;;;;;6.00;4.70;;;21.50;99.90;;;;;;5039152;28;20208;-79
2022/05/05 09:42:38;;;;;;;5.90;4.80;;;21.90;99.90;;;;;;5038763;28;20292;-79
2022/05/05 09:45:13;;;;;;;5.57;4.43;;;22.00;99.90;;;;;;5038947;28;20159;-79
2022/05/05 09:47:41;;;;;;;6.63;4.43;;;21.80;99.90;;;;;;5038686;28;20183;-79
2022/05/05 09:50:08;;;;;;;4.60;4.20;;;21.30;99.90;;;;;;5038498;28;20526;-79
2022/05/05 09:58:08;;;;;;;4.93;4.33;;;20.90;99.90;;;;;;5039558;28;20209;-80
2022/05/05 10:05:51;;;;;;;4.37;3.97;;;21.40;99.90;;;;;;5039075;28;20169;-79
2022/05/05 10:08:22;;;;;;;5.23;3.90;;;21.60;99.60;;;;;;5049801;28;20194;-79
2022/05/05 10:10:48;;;;;;;5.07;4.57;;;21.70;98.30;;;;;;5045580;28;20167;-79
2022/05/05 10:13:15;;;;;;;4.30;3.90;;;21.70;96.60;;;;;;5041399;28;20207;-79
2022/05/05 10:15:41;;;;;;;4.87;4.00;;;21.70;97.20;;;;;;5039897;28;20276;-79
2022/05/05 10:18:06;;;;;;;3.93;3.27;;;21.80;97.60;;;;;;5041112;28;20273;-80
2022/05/05 10:20:33;;;;;;;4.10;3.70;;;21.90;98.60;;;;;;5041525;28;20244;-80
2022/05/05 10:23:19;;;;;;;4.50;4.10;;;22.10;98.80;;;;;;5040647;28;20276;-79
2022/05/05 10:25:52;;;;;;;3.77;3.47;;;22.10;99.20;;;;;;5040608;28;20172;-79
2022/05/05 10:28:41;;;;;;;4.47;4.00;;;22.30;97.90;;;;;;5039007;28;20158;-80
2022/05/05 10:31:12;;;;;;;3.70;3.40;;;22.50;96.50;;;;;;5040959;28;20636;-79
2022/05/05 10:34:01;;;;;;;4.40;3.50;;;22.40;94.90;;;;;;5039133;28;20199;-80
2022/05/05 10:36:29;;;;;;;3.53;3.07;;;21.90;92.00;;;;;;5039096;28;20158;-80
2022/05/05 10:38:55;;;;;;;3.93;3.37;;;21.10;93.40;;;;;;5039311;28;20530;-80
2022/05/05 10:41:39;;;;;;;4.93;3.37;;;20.60;93.50;;;;;;5039244;28;20196;-79
2022/05/05 10:44:16;;;;;;;4.33;3.37;;;20.70;95.40;;;;;;5039028;28;20261;-80
2022/05/05 10:46:54;;;;;;;4.70;2.93;;;21.10;94.50;;;;;;5037478;28;20170;-79
2022/05/05 10:49:42;;;;;;;5.73;3.03;;;21.50;96.20;;;;;;5038848;28;20226;-80
2022/05/05 10:52:10;;;;;;;3.60;3.07;;;22.10;95.30;;;;;;5039126;28;20196;-79
2022/05/05 10:54:47;;;;;;;3.30;3.00;;;22.50;96.30;;;;;;5039089;28;20212;-79
2022/05/05 10:57:24;;;;;;;4.73;3.63;;;22.20;92.70;;;;;;5040020;28;20178;-79
2022/05/05 11:00:15;;;;;;;4.13;3.20;;;22.00;94.00;;;;;;5037362;28;20670;-79
2022/05/05 11:03:00;;;;;;;3.37;3.07;;;21.70;93.90;;;;;;5034173;28;20220;-79
2022/05/05 11:05:33;;;;;;;5.80;4.37;;;21.10;94.40;;;;;;5040131;28;20249;-79
2022/05/05 11:08:14;;;;;;;5.57;4.17;;;20.70;96.80;;;;;;5039063;28;20184;-79
2022/05/05 11:13:41;;;;;;;4.83;3.77;;;19.80;97.20;;;;;;5039283;28;20250;-79
2022/05/05 11:22:18;;;;;;;5.60;5.10;;;20.90;98.00;;;;;;5038886;28;20638;-79
2022/05/05 11:24:49;;;;;;;5.37;4.87;;;20.90;98.60;;;;;;5038132;28;20182;-79
2022/05/05 11:27:16;;;;;;;6.17;5.03;;;20.70;97.90;;;;;;5036548;28;20269;-76
2022/05/05 11:29:56;;;;;;;6.43;5.33;;;20.50;97.80;;;;;;5034193;28;20247;-76
2022/05/05 11:32:32;;;;;;;7.83;4.50;;;20.00;98.60;;;;;;5034156;28;20288;-75
2022/05/05 11:34:59;;;;;;;4.97;4.47;;;19.80;99.70;;;;;;5033530;28;20256;-76
2022/05/05 11:37:29;;;;;;;5.93;5.33;;;19.60;97.70;;;;;;5033599;28;20182;-76
2022/05/05 11:39:55;;;;;;;7.30;5.60;;;19.70;99.90;;;;;;5034178;28;20194;-78
2022/05/05 11:42:21;;;;;;;5.00;4.50;;;20.10;99.90;;;;;;5036330;28;20225;-78
2022/05/05 11:44:48;;;;;;;8.30;4.70;;;21.00;99.90;;;;;;5035985;28;20171;-78
2022/05/05 11:47:21;;;;;;;7.20;4.47;;;21.50;96.00;;;;;;5036816;28;20176;-79
2022/05/05 11:49:50;;;;;;;7.17;4.40;;;21.50;96.50;;;;;;5036541;28;20162;-79
2022/05/05 11:52:25;;;;;;;5.53;4.80;;;21.60;96.50;;;;;;5035699;28;20194;-77
2022/05/05 11:54:53;;;;;;;8.70;5.30;;;21.50;96.40;;;;;;5036708;28;20261;-78
2022/05/05 11:57:39;;;;;;;7.30;4.77;;;20.90;96.40;;;;;;5038013;28;20190;-79
2022/05/05 12:02:51;;;;;;;6.17;4.43;;;20.40;97.70;;;;;;5037350;28;20215;-77
2022/05/05 12:05:18;;;;;;;6.37;4.57;;;19.80;97.50;;;;;;5038475;28;20174;-79
2022/05/05 12:07:44;;;;;;;5.20;4.63;;;20.10;97.50;;;;;;5039907;28;20166;-78
2022/05/05 12:10:13;;;;;;;5.23;4.60;;;20.20;98.40;;;;;;5039601;28;20268;-78
2022/05/05 12:12:49;;;;;;;5.00;4.57;;;20.10;97.10;;;;;;5037885;28;20198;-78
2022/05/05 12:15:16;;;;;;;7.37;4.63;;;20.10;98.30;;;;;;5038090;28;20216;-78
2022/05/05 12:17:49;;;;;;;6.03;4.57;;;20.30;98.00;;;;;;5039369;28;20206;-78
2022/05/05 12:20:17;;;;;;;5.20;4.70;;;20.50;97.70;;;;;;5041426;28;20158;-78
2022/05/05 12:22:44;;;;;;;5.23;4.57;;;20.60;98.50;;;;;;5041276;28;20200;-78
2022/05/05 12:25:16;;;;;;;4.47;3.87;;;20.40;96.50;;;;;;5041058;28;20166;-78
2022/05/05 12:27:46;;;;;;;5.63;4.47;;;20.60;98.10;;;;;;5041489;28;20170;-79
2022/05/05 12:30:12;;;;;;;4.83;4.43;;;21.00;96.40;;;;;;5037032;28;20269;-78
2022/05/05 12:32:51;;;;;;;7.87;4.93;;;21.10;96.30;;;;;;5038517;28;20281;-78
2022/05/05 12:35:31;;;;;;;7.33;4.70;;;21.00;99.40;;;;;;5038834;28;20207;-78
2022/05/05 12:37:58;;;;;;;5.47;4.27;;;21.00;95.80;;;;;;5037482;28;20174;-78
2022/05/05 12:40:24;;;;;;;4.50;4.03;;;20.80;95.40;;;;;;5038544;28;20269;-78
2022/05/05 12:42:50;;;;;;;4.00;3.70;;;20.50;96.60;;;;;;5037394;28;20257;-78
2022/05/05 12:45:29;;;;;;;5.20;4.50;;;20.50;96.60;;;;;;5037590;28;20182;-78
2022/05/05 12:47:58;;;;;;;5.73;4.10;;;20.50;96.40;;;;;;5036787;28;20178;-77
2022/05/05 12:50:29;;;;;;;5.70;3.97;;;20.40;95.10;;;;;;5035782;28;20177;-77
2022/05/05 13:01:19;;;;;;;4.93;3.50;;;19.80;96.10;;;;;;5036458;28;20165;-77
2022/05/05 13:03:45;;;;;;;9.97;3.67;;;19.70;95.50;;;;;;5036268;28;20216;-78
2022/05/05 13:06:12;;;;;;;4.43;3.07;;;19.60;95.50;;;;;;5038297;28;20264;-78
2022/05/05 13:08:38;;;;;;;10.20;3.53;;;19.70;96.00;;;;;;5044278;28;20174;-78
2022/05/05 13:11:03;;;;;;;4.03;3.03;;;19.70;97.10;;;;;;5040590;28;20189;-78
2022/05/05 13:13:29;;;;;;;4.67;3.90;;;19.70;95.80;;;;;;5038607;28;20688;-78
2022/05/05 13:15:55;;;;;;;5.67;3.37;;;19.70;97.20;;;;;;5037373;28;20546;-78
2022/05/05 13:18:20;;;;;;;4.33;3.60;;;19.80;97.00;;;;;;5037480;28;20182;-78
2022/05/05 13:20:46;;;;;;;4.37;3.80;;;19.70;96.40;;;;;;5038022;28;20174;-79
2022/05/05 13:23:12;;;;;;;4.50;4.10;;;19.70;98.00;;;;;;5038803;28;20209;-78
2022/05/05 13:25:37;;;;;;;5.57;3.83;;;19.60;97.20;;;;;;5038810;28;20186;-79
2022/05/05 13:28:04;;;;;;;4.67;4.03;;;19.60;96.80;;;;;;5038138;28;20180;-78
2022/05/05 13:30:30;;;;;;;4.67;4.23;;;19.80;97.50;;;;;;5038406;28;20528;-78
2022/05/05 13:32:55;;;;;;;5.10;3.97;;;19.70;97.60;;;;;;5037357;28;20209;-79
2022/05/05 13:35:21;;;;;;;5.13;4.10;;;19.80;96.80;;;;;;5037812;28;20663;-78
2022/05/05 13:37:47;;;;;;;4.03;3.73;;;19.70;97.50;;;;;;5038600;28;20205;-78
2022/05/05 13:40:13;;;;;;;3.93;3.53;;;19.70;97.80;;;;;;5036429;28;20197;-77
2022/05/05 13:42:39;;;;;;;4.23;3.83;;;19.80;97.30;;;;;;5037158;28;20202;-78
2022/05/05 13:45:05;;;;;;;7.63;3.57;;;19.70;99.20;;;;;;5038039;28;20232;-77
2022/05/05 13:47:31;;;;;;;8.53;4.10;;;19.80;96.80;;;;;;5038053;28;20170;-77
2022/05/05 13:49:56;;;;;;;4.17;3.53;;;19.90;98.70;;;;;;5037193;28;20586;-78
2022/05/05 13:52:22;;;;;;;3.57;3.20;;;19.90;96.90;;;;;;5036146;28;20599;-77
2022/05/05 13:54:48;;;;;;;5.83;3.60;;;19.90;97.40;;;;;;5036795;28;20269;-77
2022/05/05 13:57:14;;;;;;;4.97;3.70;;;19.80;96.30;;;;;;5037419;28;20583;-77
2022/05/05 13:59:43;;;;;;;7.10;3.73;;;19.60;96.40;;;;;;5034473;28;20206;-78
2022/05/05 14:02:08;;;;;;;4.10;3.00;;;19.40;97.30;;;;;;5036322;28;20203;-78